Time;durP1;ratioP1;P1;durP2;ratioP2;P2;SDS_P1;SDS_P2;PMS_P1;PMS_P2;Temp;Humidity;BMP_temperature;BMP_pressure;BME280_temperature;BME280_humidity;BME280_pressure;Samples;Min_cycle;Max_cycle;Signal;HPM_P1;HPM_P2
2022/08/13 00:02:16;;;;;;;4.10;2.70;;;;;;;18.87;75.71;100918.00;7699693;23;20021;-92
2022/08/13 00:05:23;;;;;;;3.25;2.72;;;;;;;18.82;75.06;100922.94;7677464;23;20024;-92
2022/08/13 00:08:48;;;;;;;8.45;5.47;;;;;;;18.78;74.42;100913.75;7698266;23;20612;-91
2022/08/13 00:15:27;;;;;;;12.20;8.32;;;;;;;18.75;74.97;100914.88;7699303;23;20074;-92
2022/08/13 00:18:29;;;;;;;6.82;5.35;;;;;;;18.75;75.14;100914.06;7699025;23;20032;-92
2022/08/13 00:21:32;;;;;;;10.38;6.57;;;;;;;18.73;75.29;100914.22;7698080;23;20016;-92
2022/08/13 00:24:55;;;;;;;11.93;6.53;;;;;;;18.71;74.76;100917.03;7698385;23;20114;-92
2022/08/13 00:27:58;;;;;;;16.38;10.55;;;;;;;18.68;75.28;100912.09;7672875;23;20032;-92
2022/08/13 00:31:05;;;;;;;12.70;7.63;;;;;;;18.66;76.08;100916.69;7699041;23;20095;-92
2022/08/13 00:34:11;;;;;;;8.15;4.95;;;;;;;18.67;75.78;100917.50;7699312;23;20048;-92
2022/08/13 00:37:13;;;;;;;3.53;3.00;;;;;;;18.64;75.86;100913.41;7697206;23;20020;-92
2022/08/13 00:40:29;;;;;;;12.10;2.70;;;;;;;18.60;75.57;100909.47;7699540;23;20431;-91
2022/08/13 00:43:33;;;;;;;4.55;2.30;;;;;;;18.57;75.65;100903.75;7702183;23;20020;-92
2022/08/13 00:46:38;;;;;;;2.67;1.90;;;;;;;18.49;77.25;100905.38;7675328;23;20021;-91
2022/08/13 00:49:39;;;;;;;5.55;2.08;;;;;;;18.44;77.44;100901.63;7702507;23;20035;-92
2022/08/13 00:53:02;;;;;;;2.45;1.80;;;;;;;18.36;77.31;100905.06;7702011;23;20056;-92
2022/08/13 00:56:05;;;;;;;2.33;2.13;;;;;;;18.31;78.01;100902.09;7701605;23;20031;-92
2022/08/13 00:59:13;;;;;;;3.65;1.90;;;;;;;18.25;78.31;100900.13;7700649;23;20086;-93
2022/08/13 01:02:16;;;;;;;2.42;1.90;;;;;;;18.21;79.25;100904.03;7701390;23;20017;-92
2022/08/13 01:05:23;;;;;;;2.25;1.80;;;;;;;18.17;80.17;100893.06;7699633;23;20020;-92
2022/08/13 01:08:27;;;;;;;3.35;2.03;;;;;;;18.14;79.84;100895.22;7702001;23;20047;-92
2022/08/13 01:11:34;;;;;;;3.60;2.00;;;;;;;18.14;78.97;100889.97;7700894;23;20424;-92
2022/08/13 01:14:37;;;;;;;3.25;2.10;;;;;;;18.10;78.45;100902.56;7675057;23;20023;-92
2022/08/13 01:17:45;;;;;;;2.17;1.92;;;;;;;18.11;78.63;100898.13;7671862;23;20215;-92
2022/08/13 01:21:00;;;;;;;4.07;2.10;;;;;;;18.08;79.58;100896.66;7701232;23;20020;-92
2022/08/13 01:24:04;;;;;;;3.78;2.13;;;;;;;18.00;79.82;100897.47;7673274;23;20029;-91
2022/08/13 01:27:08;;;;;;;7.22;2.13;;;;;;;17.95;79.59;100897.13;7700734;23;20047;-92
2022/08/13 01:30:17;;;;;;;3.85;2.03;;;;;;;17.86;80.51;100898.06;7700995;23;20029;-91
2022/08/13 01:33:20;;;;;;;2.75;1.75;;;;;;;17.80;81.09;100901.34;7702132;23;20352;-92
2022/08/13 01:36:24;;;;;;;5.38;2.17;;;;;;;17.70;80.53;100896.19;7673906;23;20025;-92
2022/08/13 01:39:46;;;;;;;2.70;2.20;;;;;;;17.59;82.13;100899.13;7674283;23;20032;-92
2022/08/13 01:42:49;;;;;;;3.10;2.00;;;;;;;17.54;82.08;100896.97;7700014;23;20040;-92
2022/08/13 01:45:59;;;;;;;5.10;1.95;;;;;;;17.48;82.90;100899.38;7700539;23;20245;-92
2022/08/13 01:52:47;;;;;;;;;;;;;;;17.36;84.02;100899.66;7700805;23;20027;-92
2022/08/13 01:55:55;;;;;;;4.82;2.53;;;;;;;17.34;84.27;100900.78;7649001;23;19920;-92
2022/08/13 01:59:18;;;;;;;2.10;1.90;;;;;;;17.30;83.78;100908.13;7673847;23;20035;-91
2022/08/13 02:02:27;;;;;;;3.60;2.63;;;;;;;17.27;83.56;100895.38;7700641;23;20021;-92
2022/08/13 02:05:44;;;;;;;2.15;2.00;;;;;;;17.23;84.59;100901.88;7677480;23;20027;-92
2022/08/13 02:09:05;;;;;;;3.50;2.20;;;;;;;17.20;84.74;100897.78;7701175;23;20021;-91
2022/08/13 02:12:27;;;;;;;2.25;2.05;;;;;;;17.19;84.97;100900.53;7701398;23;20151;-91
2022/08/13 02:15:36;;;;;;;2.58;2.13;;;;;;;17.14;84.96;100901.03;7673562;23;20024;-91
2022/08/13 02:18:44;;;;;;;3.53;2.10;;;;;;;17.11;84.37;100903.13;7700392;23;20036;-91
2022/08/13 02:21:46;;;;;;;3.47;2.10;;;;;;;17.08;84.61;100899.00;7701127;23;20447;-92
2022/08/13 02:24:55;;;;;;;3.17;2.50;;;;;;;17.06;84.73;100897.53;7700727;23;20027;-91
2022/08/13 02:27:58;;;;;;;3.43;2.20;;;;;;;17.06;85.63;100900.97;7700713;23;20530;-91
2022/08/13 02:31:00;;;;;;;6.88;2.08;;;;;;;17.03;85.25;100900.47;7673558;23;20841;-91
2022/08/13 02:34:03;;;;;;;2.60;2.40;;;;;;;16.98;85.38;100899.13;7673745;23;20373;-91
2022/08/13 02:37:11;;;;;;;3.17;2.10;;;;;;;16.96;85.45;100905.47;7699405;23;20449;-91
2022/08/13 02:43:54;;;;;;;2.40;2.17;;;;;;;16.89;85.12;100900.03;7698416;23;20343;-91
2022/08/13 02:47:01;;;;;;;2.40;2.08;;;;;;;16.85;86.17;100893.47;7699103;23;20024;-91
2022/08/13 02:50:04;;;;;;;3.22;2.33;;;;;;;16.83;86.22;100898.03;7699011;23;20071;-91
2022/08/13 02:53:06;;;;;;;4.60;2.22;;;;;;;16.80;86.02;100890.50;7698754;23;20020;-91
2022/08/13 02:56:28;;;;;;;6.53;2.38;;;;;;;16.78;85.85;100887.22;7699562;23;20454;-92
2022/08/13 02:59:29;;;;;;;4.07;2.40;;;;;;;16.73;85.96;100900.72;7672767;23;20463;-91
2022/08/13 03:02:52;;;;;;;2.38;2.15;;;;;;;16.75;87.43;100883.09;7699885;23;20852;-91
2022/08/13 03:05:55;;;;;;;4.63;2.45;;;;;;;16.74;85.98;100884.06;7698625;23;20021;-91
2022/08/13 03:09:04;;;;;;;2.40;2.20;;;;;;;16.76;85.97;100899.59;7699049;23;20533;-91
2022/08/13 03:12:07;;;;;;;3.53;2.25;;;;;;;16.78;87.84;100892.44;7672818;23;20115;-91
2022/08/13 03:15:13;;;;;;;3.35;2.45;;;;;;;16.77;87.11;100896.84;7673192;23;20012;-92
2022/08/13 03:18:17;;;;;;;3.35;2.20;;;;;;;16.74;85.74;100901.53;7699983;23;20020;-91
2022/08/13 03:21:33;;;;;;;3.13;2.63;;;;;;;16.68;86.36;100889.09;7699250;23;20036;-91
2022/08/13 03:24:45;;;;;;;3.80;2.47;;;;;;;16.65;87.95;100899.84;7673352;23;20023;-91
2022/08/13 03:27:48;;;;;;;2.83;2.40;;;;;;;16.60;87.50;100891.63;7698939;23;20024;-91
2022/08/13 03:30:54;;;;;;;3.72;2.78;;;;;;;16.54;87.05;100901.69;7674038;23;20032;-91
2022/08/13 03:34:01;;;;;;;2.67;2.47;;;;;;;16.53;89.16;100902.69;7648978;23;20031;-91
2022/08/13 03:37:05;;;;;;;3.30;2.50;;;;;;;16.50;87.73;100900.38;7698913;23;20023;-91
2022/08/13 03:40:08;;;;;;;5.70;2.60;;;;;;;16.50;89.26;100900.38;7698737;23;20025;-91
2022/08/13 03:43:10;;;;;;;2.97;2.45;;;;;;;16.46;89.19;100893.81;7698282;23;20024;-90
2022/08/13 03:46:20;;;;;;;3.40;2.80;;;;;;;16.40;89.22;100885.72;7700450;23;20021;-91
2022/08/13 03:49:22;;;;;;;3.45;2.85;;;;;;;16.30;89.39;100886.66;7699355;23;20020;-91
2022/08/13 03:52:30;;;;;;;2.92;2.60;;;;;;;16.27;90.12;100883.50;7699294;23;20021;-91
2022/08/13 03:55:39;;;;;;;4.20;2.67;;;;;;;16.20;90.64;100885.06;7672385;23;20029;-91
2022/08/13 03:58:46;;;;;;;3.00;2.70;;;;;;;16.14;90.84;100884.69;7648351;23;20027;-91
2022/08/13 04:01:51;;;;;;;3.95;2.67;;;;;;;16.14;91.26;100879.47;7698020;23;20021;-91
2022/08/13 04:04:58;;;;;;;3.10;2.63;;;;;;;16.11;92.02;100890.22;7698534;23;20020;-91
2022/08/13 04:08:00;;;;;;;3.70;2.42;;;;;;;16.09;91.62;100891.34;7647960;23;20024;-91
2022/08/13 04:11:04;;;;;;;3.35;2.50;;;;;;;16.09;91.36;100886.94;7647397;23;20394;-91
2022/08/13 04:14:08;;;;;;;4.22;2.47;;;;;;;16.05;90.74;100890.81;7699202;23;20020;-91
2022/08/13 04:17:31;;;;;;;4.57;2.83;;;;;;;16.05;91.01;100888.22;7658210;23;20482;-91
2022/08/13 04:20:36;;;;;;;3.78;2.40;;;;;;;16.07;92.26;100886.28;7701995;23;20020;-91
2022/08/13 04:23:39;;;;;;;4.22;2.53;;;;;;;16.10;91.32;100880.75;7673412;23;20068;-91
2022/08/13 04:26:43;;;;;;;3.90;2.70;;;;;;;16.10;91.28;100888.59;7673405;23;20020;-91
2022/08/13 04:29:51;;;;;;;3.97;2.40;;;;;;;16.10;91.97;100880.75;7700270;23;20021;-91
2022/08/13 04:32:53;;;;;;;3.45;2.85;;;;;;;16.13;91.85;100884.84;7700611;23;20017;-92
2022/08/13 04:36:16;;;;;;;3.20;2.90;;;;;;;16.16;92.22;100884.56;7678789;23;20047;-91
2022/08/13 04:39:19;;;;;;;4.22;2.63;;;;;;;16.18;91.97;100877.41;7700142;23;20404;-91
2022/08/13 04:42:22;;;;;;;3.42;2.60;;;;;;;16.23;92.17;100890.81;7673313;23;20017;-91
2022/08/13 04:45:38;;;;;;;3.10;2.80;;;;;;;16.28;92.57;100885.16;7700229;23;20024;-91
2022/08/13 04:48:43;;;;;;;3.60;3.00;;;;;;;16.31;92.57;100896.13;7674838;23;20020;-91
2022/08/13 04:51:53;;;;;;;3.80;2.70;;;;;;;16.39;92.16;100884.91;7675364;23;20044;-91
2022/08/13 04:54:55;;;;;;;4.18;3.25;;;;;;;16.47;92.06;100884.16;7672896;23;20083;-91
2022/08/13 04:57:58;;;;;;;3.22;2.60;;;;;;;16.55;92.46;100882.44;7699914;23;20021;-91
2022/08/13 05:01:04;;;;;;;5.10;3.10;;;;;;;16.62;92.83;100885.28;7673871;23;20379;-91
2022/08/13 05:04:26;;;;;;;5.97;2.90;;;;;;;16.67;92.24;100876.97;7633155;23;20025;-91
2022/08/13 05:07:34;;;;;;;3.45;2.80;;;;;;;16.71;91.99;100880.94;7700386;23;20451;-91
2022/08/13 05:10:39;;;;;;;3.38;2.78;;;;;;;16.76;92.42;100887.34;7649604;23;20444;-91
2022/08/13 05:13:43;;;;;;;5.18;3.20;;;;;;;16.83;92.52;100879.75;7701570;23;20020;-91
2022/08/13 05:16:45;;;;;;;3.88;2.50;;;;;;;16.89;92.77;100883.53;7690148;23;20028;-91
2022/08/13 05:19:52;;;;;;;3.85;2.50;;;;;;;16.96;92.60;100879.31;7701666;23;20530;-91
2022/08/13 05:22:56;;;;;;;3.00;2.70;;;;;;;17.02;92.03;100881.34;7674871;23;20020;-91
2022/08/13 05:26:17;;;;;;;5.50;2.65;;;;;;;17.08;91.72;100880.72;7679447;23;20043;-91
2022/08/13 05:29:39;;;;;;;3.50;2.80;;;;;;;17.15;91.45;100886.97;7652796;23;20025;-91
2022/08/13 05:33:01;;;;;;;4.03;2.53;;;;;;;17.23;91.35;100888.81;7699824;23;20020;-91
2022/08/13 05:36:14;;;;;;;4.90;2.83;;;;;;;17.32;90.95;100885.25;7700305;23;20021;-91
2022/08/13 05:39:36;;;;;;;3.47;2.70;;;;;;;17.38;90.94;100879.38;7677953;23;20031;-91
2022/08/13 05:42:49;;;;;;;6.45;3.20;;;;;;;17.46;86.47;100885.63;7676071;23;20147;-91
2022/08/13 05:45:57;;;;;;;3.95;2.47;;;;;;;17.58;87.79;100887.81;7698215;23;20027;-92
2022/08/13 05:49:08;;;;;;;4.70;2.65;;;;;;;17.70;88.57;100885.72;7674083;23;20502;-92
2022/08/13 05:52:11;;;;;;;3.25;2.70;;;;;;;17.77;88.53;100876.25;7699071;23;20130;-92
2022/08/13 05:55:34;;;;;;;4.47;3.10;;;;;;;17.85;88.99;100872.88;7698883;23;20451;-91
2022/08/13 05:58:57;;;;;;;5.93;2.92;;;;;;;17.94;89.20;100879.78;7698406;23;20012;-91
2022/08/13 06:05:37;;;;;;;2.88;2.58;;;;;;;18.04;89.58;100877.81;7698718;23;20135;-91
2022/08/13 06:08:48;;;;;;;3.97;2.90;;;;;;;18.12;87.63;100878.81;7698822;23;20513;-92
2022/08/13 06:11:51;;;;;;;4.43;2.83;;;;;;;18.18;88.68;100876.34;7699219;23;20459;-91
2022/08/13 06:15:13;;;;;;;3.25;2.90;;;;;;;18.26;89.50;100870.31;7699386;23;20283;-92
2022/08/13 06:18:18;;;;;;;3.28;2.97;;;;;;;18.33;88.19;100867.84;7697898;23;20320;-92
2022/08/13 06:21:32;;;;;;;4.90;3.25;;;;;;;18.42;86.40;100878.19;7698941;23;20016;-92
2022/08/13 06:24:54;;;;;;;4.10;2.83;;;;;;;18.51;85.92;100879.81;7676398;23;20021;-92
2022/08/13 06:28:00;;;;;;;4.18;3.00;;;;;;;18.58;87.45;100887.03;7699755;23;20028;-92
2022/08/13 06:31:05;;;;;;;6.45;2.70;;;;;;;18.61;87.90;100887.53;7699910;23;20021;-92
2022/08/13 06:34:26;;;;;;;3.90;2.90;;;;;;;18.64;86.43;100889.00;7699329;23;20473;-91
2022/08/13 06:37:41;;;;;;;3.85;2.70;;;;;;;18.67;86.54;100884.22;7675896;23;20025;-92
2022/08/13 06:40:54;;;;;;;4.20;2.60;;;;;;;18.70;87.13;100883.91;7671632;23;20031;-91
2022/08/13 06:43:56;;;;;;;3.25;2.90;;;;;;;18.73;87.49;100887.97;7698567;23;20023;-91
2022/08/13 06:47:04;;;;;;;4.57;3.00;;;;;;;18.76;85.31;100895.56;7698940;23;20095;-91
2022/08/13 06:50:10;;;;;;;6.20;2.92;;;;;;;18.80;86.08;100890.81;7672818;23;20031;-91
2022/08/13 06:53:12;;;;;;;3.05;2.50;;;;;;;18.85;86.74;100891.13;7698317;23;20033;-91
2022/08/13 06:56:35;;;;;;;2.97;2.63;;;;;;;18.95;86.36;100894.38;7699644;23;20435;-91
2022/08/13 06:59:40;;;;;;;7.20;2.63;;;;;;;19.02;84.56;100890.09;7672487;23;20051;-91
2022/08/13 07:03:02;;;;;;;3.50;2.78;;;;;;;19.12;81.75;100903.03;7698316;23;20031;-91
2022/08/13 07:06:04;;;;;;;4.78;2.90;;;;;;;19.21;80.13;100904.66;7698877;23;20028;-92
2022/08/13 07:09:06;;;;;;;3.25;2.90;;;;;;;19.30;79.59;100908.06;7698089;23;20347;-91
2022/08/13 07:12:12;;;;;;;5.28;2.80;;;;;;;19.39;77.63;100909.69;7699163;23;20027;-91
2022/08/13 07:15:16;;;;;;;5.93;2.65;;;;;;;19.48;77.42;100906.06;7699283;23;20024;-91
2022/08/13 07:18:38;;;;;;;3.33;2.88;;;;;;;19.55;76.52;100909.66;7672101;23;20520;-91
2022/08/13 07:21:48;;;;;;;3.53;2.53;;;;;;;19.65;75.39;100906.81;7699589;23;20447;-91
2022/08/13 07:24:52;;;;;;;3.15;2.60;;;;;;;19.74;74.84;100912.88;7699272;23;20017;-91
2022/08/13 07:27:55;;;;;;;8.07;3.08;;;;;;;19.84;75.07;100904.78;7699089;23;20020;-91
2022/08/13 07:30:59;;;;;;;5.57;3.60;;;;;;;19.94;73.57;100897.50;7699151;23;20020;-92
2022/08/13 07:34:04;;;;;;;3.40;3.10;;;;;;;20.05;71.36;100899.72;7675996;23;20024;-91
2022/08/13 07:37:08;;;;;;;3.80;2.70;;;;;;;20.15;70.78;100897.69;7701236;23;20167;-91
2022/08/13 07:40:14;;;;;;;3.42;3.00;;;;;;;20.23;70.96;100896.81;7701490;23;20021;-91
2022/08/13 07:43:19;;;;;;;6.63;3.05;;;;;;;20.35;69.86;100898.03;7702326;23;20323;-92
2022/08/13 07:46:21;;;;;;;3.33;2.80;;;;;;;20.46;69.69;100895.97;7697686;23;20028;-91
2022/08/13 07:49:30;;;;;;;3.60;2.60;;;;;;;20.57;69.86;100896.41;7700190;23;20467;-91
2022/08/13 07:52:55;;;;;;;5.15;2.95;;;;;;;20.68;69.28;100896.97;7698956;23;20048;-92
2022/08/13 07:55:59;;;;;;;4.80;2.78;;;;;;;20.81;68.61;100903.25;7701690;23;20027;-91
2022/08/13 07:59:21;;;;;;;4.78;2.55;;;;;;;20.93;68.52;100898.38;7699320;23;20102;-91
2022/08/13 08:02:43;;;;;;;3.78;2.60;;;;;;;21.06;67.95;100895.91;7700229;23;20100;-92
2022/08/13 08:05:48;;;;;;;4.90;4.25;;;;;;;21.20;67.75;100910.09;7700958;23;20052;-92
2022/08/13 08:08:53;;;;;;;5.00;2.88;;;;;;;21.33;67.53;100911.28;7674459;23;20027;-92
2022/08/13 08:15:28;;;;;;;2.80;2.60;;;;;;;21.59;66.81;100906.38;7701631;23;20456;-92
2022/08/13 08:18:50;;;;;;;4.25;2.70;;;;;;;21.77;65.29;100910.44;7701497;23;20027;-92
2022/08/13 08:22:15;;;;;;;5.45;2.83;;;;;;;21.90;65.17;100913.22;7677697;23;20371;-93
2022/08/13 08:25:28;;;;;;;4.90;3.10;;;;;;;21.98;64.75;100914.91;7698093;23;20020;-92
2022/08/13 08:28:37;;;;;;;5.72;3.05;;;;;;;22.07;64.43;100911.97;7673808;23;20044;-92
2022/08/13 08:31:44;;;;;;;5.30;2.90;;;;;;;22.20;63.65;100913.97;7674889;23;20023;-92
2022/08/13 08:35:03;;;;;;;3.35;2.97;;;;;;;22.33;62.76;100915.91;7700663;23;20127;-94
2022/08/13 08:45:00;;;;;;;3.13;2.83;;;;;;;22.67;61.32;100924.94;7701451;23;20020;-92
2022/08/13 08:48:03;;;;;;;7.80;3.45;;;;;;;22.71;61.40;100918.28;7673336;23;20020;-93
2022/08/13 08:51:05;;;;;;;3.47;3.10;;;;;;;22.92;61.26;100917.41;7672622;23;20440;-93
2022/08/13 08:54:23;;;;;;;5.32;3.20;;;;;;;23.40;60.47;100925.41;7700773;23;20025;-93
2022/08/13 08:57:36;;;;;;;5.20;3.13;;;;;;;23.89;59.49;100920.97;7698794;23;20191;-93
2022/08/13 09:00:40;;;;;;;3.88;3.42;;;;;;;24.28;55.85;100904.38;7674380;23;20043;-94
2022/08/13 09:03:46;;;;;;;7.03;3.40;;;;;;;24.58;56.07;100907.44;7650071;23;20530;-93
2022/08/13 09:06:59;;;;;;;4.40;3.17;;;;;;;24.68;56.16;100907.84;7675174;23;20031;-93
2022/08/13 09:10:01;;;;;;;3.83;3.47;;;;;;;24.83;55.18;100905.00;7702167;23;20406;-93
2022/08/13 09:13:06;;;;;;;3.55;3.10;;;;;;;25.08;54.86;100897.19;7701333;23;20020;-93
2022/08/13 09:16:11;;;;;;;3.80;3.30;;;;;;;25.19;54.42;100897.59;7702771;23;20025;-93
2022/08/13 09:19:17;;;;;;;5.13;3.38;;;;;;;25.22;55.25;100890.06;7674253;23;20028;-93
2022/08/13 09:22:41;;;;;;;3.55;3.25;;;;;;;25.21;53.10;100885.75;7702106;23;20031;-94
2022/08/13 09:25:53;;;;;;;3.92;3.28;;;;;;;25.10;54.40;100891.69;7703127;23;20024;-94
2022/08/13 09:28:59;;;;;;;5.13;3.10;;;;;;;25.09;54.24;100887.41;7675051;23;20025;-94
2022/08/13 09:32:05;;;;;;;3.67;3.38;;;;;;;25.13;54.27;100884.13;7702204;23;20020;-93
2022/08/13 09:35:11;;;;;;;3.90;3.50;;;;;;;25.19;54.33;100887.81;7700760;23;20470;-94
2022/08/13 09:38:15;;;;;;;4.70;3.58;;;;;;;25.28;53.81;100881.25;7675138;23;20095;-94
2022/08/13 09:41:32;;;;;;;3.80;3.47;;;;;;;25.41;54.32;100891.00;7702093;23;20031;-94
2022/08/13 09:44:41;;;;;;;4.45;3.88;;;;;;;25.50;52.64;100880.97;7701562;23;20122;-93
2022/08/13 09:47:48;;;;;;;5.43;3.83;;;;;;;25.58;52.37;100872.78;7702321;23;20027;-93
2022/08/13 09:51:13;;;;;;;4.57;4.00;;;;;;;25.76;52.48;100864.94;7701057;23;20027;-94
2022/08/13 09:54:37;;;;;;;5.18;4.10;;;;;;;25.87;52.56;100875.91;7700150;23;20152;-94
2022/08/13 09:57:59;;;;;;;5.55;3.50;;;;;;;26.02;51.36;100865.00;7701985;23;20458;-94
2022/08/13 10:01:01;;;;;;;5.35;3.60;;;;;;;26.12;52.83;100870.66;7674722;23;20024;-95
2022/08/13 10:04:04;;;;;;;4.47;4.07;;;;;;;26.26;52.75;100858.91;7700788;23;20478;-94
2022/08/13 10:07:08;;;;;;;5.38;4.25;;;;;;;26.46;51.58;100861.38;7698825;23;20090;-93
2022/08/13 10:10:22;;;;;;;4.88;3.97;;;;;;;26.71;52.19;100853.41;7701129;23;20321;-95
2022/08/13 10:13:33;;;;;;;4.75;4.35;;;;;;;26.82;51.38;100851.84;7702227;23;20032;-94
2022/08/13 10:16:53;;;;;;;6.15;4.30;;;;;;;26.97;50.05;100849.66;7678225;23;20020;-94
2022/08/13 10:19:56;;;;;;;4.57;4.05;;;;;;;27.07;49.54;100843.81;7702234;23;20028;-94
2022/08/13 10:23:00;;;;;;;6.40;4.32;;;;;;;27.25;49.86;100850.97;7700591;23;20115;-94
2022/08/13 10:26:02;;;;;;;4.65;4.22;;;;;;;27.29;49.04;100849.50;7700677;23;20406;-94
2022/08/13 10:29:14;;;;;;;6.00;4.30;;;;;;;27.07;50.43;100841.97;7674436;23;20455;-94
2022/08/13 10:32:37;;;;;;;4.82;4.38;;;;;;;27.25;50.88;100840.34;7672981;23;20512;-94
2022/08/13 10:35:39;;;;;;;12.10;4.82;;;;;;;27.58;49.32;100837.25;7699770;23;20519;-94
2022/08/13 10:38:44;;;;;;;5.38;4.85;;;;;;;27.66;48.79;100828.94;7699957;23;20023;-95
2022/08/13 10:41:54;;;;;;;5.30;4.78;;;;;;;27.90;47.95;100824.53;7700541;23;20172;-94
2022/08/13 10:45:05;;;;;;;6.70;5.05;;;;;;;28.09;47.74;100829.75;7701937;23;20023;-94
2022/08/13 10:48:17;;;;;;;5.32;4.65;;;;;;;28.30;47.61;100815.88;7699739;23;20039;-96
2022/08/13 10:51:21;;;;;;;6.97;5.05;;;;;;;28.59;46.82;100816.00;7700126;23;20021;-94
2022/08/13 10:54:27;;;;;;;6.57;4.90;;;;;;;28.79;46.10;100815.63;7673635;23;20503;-94
2022/08/13 10:57:33;;;;;;;5.25;4.75;;;;;;;28.53;45.86;100814.28;7701177;23;20021;-94
2022/08/13 11:00:55;;;;;;;5.60;4.68;;;;;;;28.21;47.01;100805.81;7680231;23;20340;-95
2022/08/13 11:04:01;;;;;;;5.10;4.60;;;;;;;28.06;47.33;100800.94;7672799;23;20012;-95
2022/08/13 11:07:10;;;;;;;7.88;4.90;;;;;;;28.26;47.31;100805.94;7674537;23;20035;-96
2022/08/13 11:10:12;;;;;;;5.97;5.15;;;;;;;28.38;46.81;100801.41;7701456;23;20020;-94
2022/08/13 11:13:15;;;;;;;5.45;5.00;;;;;;;28.42;46.76;100793.75;7674935;23;20416;-95
2022/08/13 11:19:37;;;;;;;8.05;5.30;;;;;;;28.55;46.66;100796.22;7701294;23;20028;-95
2022/08/13 11:22:55;;;;;;;4.93;4.43;;;;;;;28.64;46.35;100786.00;7678937;23;20456;-95
2022/08/13 11:26:00;;;;;;;5.43;4.97;;;;;;;28.70;46.41;100788.53;7700631;23;20351;-95
2022/08/13 11:29:23;;;;;;;5.35;4.80;;;;;;;28.89;45.70;100780.38;7678216;23;20027;-94
2022/08/13 11:32:27;;;;;;;6.57;4.70;;;;;;;29.02;46.25;100782.78;7701338;23;20365;-96
2022/08/13 11:35:29;;;;;;;5.97;5.30;;;;;;;29.10;45.23;100776.28;7681333;23;20024;-96
2022/08/13 11:38:31;;;;;;;6.15;5.18;;;;;;;28.95;44.59;100782.91;7702812;23;20032;-96
2022/08/13 11:41:36;;;;;;;5.57;5.00;;;;;;;29.07;44.84;100774.91;7700066;23;20438;-95
2022/08/13 11:44:58;;;;;;;5.32;4.82;;;;;;;29.26;44.60;100772.03;7670833;23;20023;-96
2022/08/13 11:48:00;;;;;;;5.65;5.07;;;;;;;29.32;44.58;100769.22;7701161;23;20026;-94
2022/08/13 11:51:02;;;;;;;6.20;5.20;;;;;;;29.65;43.20;100767.66;7699901;23;20451;-96
2022/08/13 11:54:06;;;;;;;7.22;5.15;;;;;;;30.18;42.67;100761.00;7673067;23;20048;-96
2022/08/13 11:57:28;;;;;;;6.18;5.45;;;;;;;30.77;40.25;100760.44;7699913;23;20016;-95
2022/08/13 12:00:49;;;;;;;6.05;5.55;;;;;;;31.28;39.98;100760.19;7700322;23;20021;-96
2022/08/13 12:03:54;;;;;;;6.70;4.82;;;;;;;31.58;39.05;100756.19;7701171;23;20355;-96
2022/08/13 12:07:18;;;;;;;6.88;5.22;;;;;;;31.83;39.26;100756.38;7674008;23;20348;-96
2022/08/13 12:10:21;;;;;;;5.85;5.25;;;;;;;32.19;36.97;100740.56;7701453;23;20031;-96
2022/08/13 12:13:44;;;;;;;5.68;4.95;;;;;;;32.43;37.59;100740.13;7674223;23;20028;-96
2022/08/13 12:16:56;;;;;;;5.65;5.10;;;;;;;32.51;37.68;100736.97;7676836;23;20017;-96
2022/08/13 12:19:58;;;;;;;5.53;5.03;;;;;;;32.40;36.67;100739.59;7701489;23;20017;-95
2022/08/13 12:23:03;;;;;;;6.20;5.60;;;;;;;32.30;37.82;100738.72;7701438;23;20091;-95
2022/08/13 12:26:05;;;;;;;5.68;5.18;;;;;;;32.37;37.88;100732.09;7673803;23;20099;-95
2022/08/13 12:29:07;;;;;;;6.40;5.47;;;;;;;32.52;39.01;100730.53;7701142;23;20107;-96
2022/08/13 12:32:09;;;;;;;5.72;5.22;;;;;;;32.16;38.12;100730.38;7674293;23;20451;-96
2022/08/13 12:35:16;;;;;;;5.55;5.05;;;;;;;31.71;39.74;100724.44;7675393;23;20028;-95
2022/08/13 12:38:24;;;;;;;6.13;5.53;;;;;;;31.90;41.03;100718.66;7652337;23;20047;-96
2022/08/13 12:41:32;;;;;;;6.53;5.30;;;;;;;32.01;38.11;100725.72;7678767;23;20020;-96
2022/08/13 12:44:43;;;;;;;6.07;4.90;;;;;;;31.80;38.75;100715.91;7703575;23;20012;-95
2022/08/13 12:48:09;;;;;;;5.65;4.93;;;;;;;32.13;38.42;100715.63;7674436;23;20463;-96
2022/08/13 12:51:13;;;;;;;6.20;5.43;;;;;;;32.59;37.25;100705.09;7701117;23;20143;-95
2022/08/13 12:54:16;;;;;;;5.60;5.10;;;;;;;32.97;38.74;100704.91;7703711;23;20020;-96
2022/08/13 12:57:39;;;;;;;5.85;5.22;;;;;;;33.32;36.02;100706.06;7704449;23;20102;-96
2022/08/13 13:01:01;;;;;;;5.55;5.05;;;;;;;33.41;36.69;100715.16;7703411;23;20023;-95
2022/08/13 13:04:03;;;;;;;5.25;4.85;;;;;;;33.56;36.09;100693.69;7701655;23;20028;-95
2022/08/13 13:07:07;;;;;;;5.68;5.15;;;;;;;33.66;35.91;100701.75;7702980;23;20016;-96
2022/08/13 13:10:09;;;;;;;5.45;4.93;;;;;;;33.70;35.09;100696.63;7699926;23;20070;-96
2022/08/13 13:13:21;;;;;;;6.55;5.60;;;;;;;33.63;35.30;100693.41;7700029;23;20059;-95
2022/08/13 13:16:44;;;;;;;7.88;5.45;;;;;;;33.72;35.35;100686.44;7672707;23;20036;-96
2022/08/13 13:20:00;;;;;;;8.13;5.40;;;;;;;33.93;35.32;100683.69;7700090;23;20087;-95
2022/08/13 13:23:13;;;;;;;6.18;5.25;;;;;;;34.19;35.38;100692.50;7701507;23;20020;-95
2022/08/13 13:26:16;;;;;;;5.20;4.80;;;;;;;34.46;34.11;100682.16;7700312;23;20024;-94
2022/08/13 13:29:23;;;;;;;5.22;4.82;;;;;;;34.83;33.07;100685.44;7673425;23;20144;-96
2022/08/13 13:32:26;;;;;;;5.70;5.10;;;;;;;35.21;33.20;100688.41;7699250;23;20020;-96
2022/08/13 13:35:50;;;;;;;5.50;4.90;;;;;;;35.59;32.26;100697.50;7701207;23;20023;-96
2022/08/13 13:39:12;;;;;;;5.60;4.95;;;;;;;35.61;32.96;100697.22;7702152;23;20325;-95
2022/08/13 13:42:23;;;;;;;5.28;4.72;;;;;;;36.15;32.20;100686.13;7677172;23;20032;-96
2022/08/13 13:45:41;;;;;;;5.07;4.68;;;;;;;35.98;30.59;100677.69;7701118;23;20026;-96
2022/08/13 13:48:45;;;;;;;5.07;4.68;;;;;;;35.16;32.86;100682.00;7627278;23;1164528;-94
2022/08/13 13:51:47;;;;;;;5.70;5.20;;;;;;;34.38;33.04;100682.72;7704397;23;20438;-95
2022/08/13 13:54:53;;;;;;;6.18;5.07;;;;;;;33.62;35.27;100673.81;7703378;23;20028;-96
2022/08/13 13:58:00;;;;;;;5.63;5.13;;;;;;;33.00;36.90;100673.00;7703770;23;20020;-94
2022/08/13 14:01:23;;;;;;;5.82;5.32;;;;;;;32.39;36.11;100675.53;7703304;23;20021;-95
2022/08/13 14:04:26;;;;;;;5.70;5.13;;;;;;;32.03;36.09;100674.59;7675081;23;20522;-95
2022/08/13 14:07:29;;;;;;;6.85;5.35;;;;;;;31.86;38.57;100675.53;7675820;23;20351;-95
2022/08/13 14:10:53;;;;;;;5.85;5.25;;;;;;;31.81;38.91;100669.38;7675409;23;20028;-95
2022/08/13 14:13:54;;;;;;;6.22;5.32;;;;;;;31.73;38.29;100663.44;7678115;23;20016;-95
2022/08/13 14:16:58;;;;;;;7.78;5.60;;;;;;;31.96;38.64;100653.41;7703263;23;20482;-95
2022/08/13 14:20:06;;;;;;;5.68;5.18;;;;;;;32.49;38.94;100662.19;7702907;23;20321;-96
2022/08/13 14:23:17;;;;;;;5.97;5.45;;;;;;;32.94;36.42;100666.00;7701853;23;20016;-96
2022/08/13 14:26:22;;;;;;;7.28;5.30;;;;;;;33.43;36.50;100659.31;7703128;23;20275;-96
2022/08/13 14:29:26;;;;;;;5.32;4.82;;;;;;;33.98;35.98;100662.97;7702408;23;20048;-95
2022/08/13 14:32:31;;;;;;;5.60;5.10;;;;;;;34.21;34.44;100663.44;7703722;23;20351;-96
2022/08/13 14:35:39;;;;;;;6.82;5.45;;;;;;;34.12;34.65;100665.13;7695396;23;20451;-95
2022/08/13 14:38:51;;;;;;;6.20;5.05;;;;;;;33.99;35.35;100661.91;7701270;23;20024;-96
2022/08/13 14:41:53;;;;;;;5.95;5.28;;;;;;;33.81;34.64;100665.19;7703574;23;20194;-95
2022/08/13 14:48:22;;;;;;;5.70;5.20;;;;;;;33.24;36.18;100662.59;7701567;23;20025;-95
2022/08/13 14:51:26;;;;;;;6.60;5.45;;;;;;;32.88;36.71;100656.38;7701028;23;20024;-95
2022/08/13 14:54:28;;;;;;;7.75;5.88;;;;;;;32.50;36.96;100663.81;7700698;23;20021;-95
2022/08/13 14:57:34;;;;;;;5.88;5.38;;;;;;;32.14;37.70;100660.16;7673548;23;20056;-96
2022/08/13 15:00:45;;;;;;;6.13;5.55;;;;;;;31.97;37.93;100652.31;7699643;23;20016;-95
2022/08/13 15:03:53;;;;;;;6.57;5.85;;;;;;;32.53;38.00;100641.03;7701980;23;20103;-95
2022/08/13 15:06:55;;;;;;;6.00;5.43;;;;;;;33.02;37.76;100645.94;7701588;23;20095;-96
2022/08/13 15:10:00;;;;;;;5.68;5.13;;;;;;;33.54;36.53;100644.81;7701033;23;20332;-96